createdAt,value
2022-07-25T00:03:30.108Z,37.59
2022-07-25T00:09:53.652Z,37.59
2022-07-25T00:16:19.717Z,37.37
2022-07-25T00:22:51.971Z,37.4
2022-07-25T00:29:15.654Z,37.47
2022-07-25T00:35:38.525Z,37.46
2022-07-25T00:42:01.569Z,37.09
2022-07-25T00:48:33.636Z,36.93
2022-07-25T00:55:06.013Z,36.91
2022-07-25T01:01:40.209Z,36.95
2022-07-25T01:08:18.063Z,36.84
2022-07-25T01:14:48.605Z,36.74
2022-07-25T01:21:16.600Z,36.77
2022-07-25T01:27:44.002Z,36.95
2022-07-25T01:34:11.197Z,37.09
2022-07-25T01:40:37.613Z,37.14
2022-07-25T01:47:06.937Z,37.17
2022-07-25T01:53:33.797Z,37.18
2022-07-25T02:00:03.587Z,37.18
2022-07-25T02:06:38.603Z,37.04
2022-07-25T02:13:07.459Z,37.05
2022-07-25T02:19:40.416Z,37.18
2022-07-25T02:26:10.158Z,37.19
2022-07-25T02:32:39.561Z,37.21
2022-07-25T02:39:06.046Z,37.17
2022-07-25T02:45:35.699Z,37.07
2022-07-25T02:52:00.609Z,37.09
2022-07-25T02:58:34.768Z,37.05
2022-07-25T03:05:00.041Z,37.06
2022-07-25T03:11:30.531Z,36.96
2022-07-25T03:18:06.585Z,36.42
2022-07-25T03:24:35.626Z,36.37
2022-07-25T03:31:11.598Z,36.59
2022-07-25T03:37:30.970Z,36.89
2022-07-25T03:43:55.681Z,36.94
2022-07-25T03:50:24.566Z,36.76
2022-07-25T03:56:58.573Z,36.79
2022-07-25T04:03:20.631Z,36.78
2022-07-25T04:09:47.651Z,37.06
2022-07-25T04:16:22.637Z,37.49
2022-07-25T04:22:55.734Z,37.67
2022-07-25T04:29:23.769Z,37.74
2022-07-25T04:35:53.881Z,37.9
2022-07-25T04:42:16.144Z,37.92
2022-07-25T04:48:53.880Z,37.94
2022-07-25T04:55:26.513Z,38.03
2022-07-25T05:01:48.210Z,38
2022-07-25T05:08:14.284Z,37.95
2022-07-25T05:14:42.805Z,37.88
2022-07-25T05:21:10.568Z,37.85
2022-07-25T05:27:44.904Z,37.82
2022-07-25T05:34:06.435Z,37.82
2022-07-25T05:40:34.614Z,37.7
2022-07-25T05:47:05.801Z,37.63
2022-07-25T05:53:39.807Z,37.81
2022-07-25T06:00:06.042Z,37.92
2022-07-25T06:06:37.592Z,38.06
2022-07-25T06:13:00.297Z,38.06
2022-07-25T06:19:23.680Z,38.17
2022-07-25T06:25:52.197Z,38.22
2022-07-25T06:32:34.959Z,38.19
2022-07-25T06:39:07.610Z,38.11
2022-07-25T06:45:34.082Z,37.92
2022-07-25T06:51:55.354Z,37.83
2022-07-25T06:58:26.364Z,37.69
2022-07-25T07:04:52.758Z,37.47
2022-07-25T07:11:24.294Z,37.35
2022-07-25T07:17:48.807Z,37.24
2022-07-25T07:24:23.589Z,37.2
2022-07-25T07:31:17.991Z,37.16
2022-07-25T07:37:48.287Z,37.12
2022-07-25T07:44:19.357Z,37.12
2022-07-25T07:50:45.252Z,37.06
2022-07-25T07:57:15.513Z,36.98
2022-07-25T08:03:40.718Z,36.93
2022-07-25T08:10:14.808Z,36.84
2022-07-25T08:16:43.951Z,36.89
2022-07-25T08:23:08.330Z,36.94
2022-07-25T08:29:33.050Z,36.74
2022-07-25T08:36:15.706Z,36.58
2022-07-25T08:42:54.726Z,36.69
2022-07-25T08:49:38.111Z,36.51
2022-07-25T08:56:22.338Z,36.35
2022-07-25T09:02:51.902Z,36.46
2022-07-25T09:09:33.237Z,36.58
2022-07-25T09:16:14.760Z,36.73
2022-07-25T09:23:22.337Z,36.58
2022-07-25T09:30:10.525Z,36.57
2022-07-25T09:36:59.301Z,36.62
2022-07-25T09:43:46.141Z,36.61
2022-07-25T09:50:26.110Z,36.55
2022-07-25T09:57:12.401Z,36.48
2022-07-25T10:03:47.192Z,36.51
2022-07-25T10:10:35.235Z,36.49
2022-07-25T10:17:36.389Z,36.51
2022-07-25T10:24:39.002Z,36.51
2022-07-25T10:31:31.206Z,36.4
2022-07-25T10:38:06.010Z,36.39
2022-07-25T10:44:56.541Z,36.26
2022-07-25T10:51:52.024Z,36.2
2022-07-25T10:58:55.944Z,36.21
2022-07-25T11:05:37.350Z,36.27
2022-07-25T11:13:00.954Z,36.29
2022-07-25T11:19:53.000Z,36.27
2022-07-25T11:26:38.069Z,36.25
2022-07-25T11:33:18.180Z,36.24
2022-07-25T11:40:08.440Z,36.28
2022-07-25T11:47:00.830Z,36.17
2022-07-25T11:53:43.487Z,36.14
2022-07-25T12:00:20.452Z,36.14
2022-07-25T12:07:05.807Z,36.12
2022-07-25T12:14:03.175Z,36.16
2022-07-25T12:20:39.259Z,36.21
2022-07-25T12:27:27.628Z,36.03
2022-07-25T12:34:05.261Z,36.09
2022-07-25T12:40:39.230Z,36.14
2022-07-25T12:47:08.474Z,36.16
2022-07-25T12:53:42.818Z,36.19
2022-07-25T13:00:12.075Z,36.15
2022-07-25T13:06:50.181Z,36.06
2022-07-25T13:13:21.270Z,36.07
2022-07-25T13:19:50.695Z,35.98
2022-07-25T13:26:20.016Z,36.13
2022-07-25T13:32:46.376Z,36.07
2022-07-25T13:39:40.061Z,36.29
2022-07-25T13:46:05.834Z,36.27
2022-07-25T13:52:39.056Z,36.2
2022-07-25T13:59:05.487Z,36.06
2022-07-25T14:05:36.519Z,36.17
2022-07-25T14:12:02.677Z,36.16
2022-07-25T14:18:40.127Z,36.09
2022-07-25T14:25:09.402Z,35.87
2022-07-25T14:31:37.257Z,35.8
2022-07-25T14:38:04.518Z,35.61
2022-07-25T14:44:30.688Z,35.76
2022-07-25T14:51:03.826Z,35.81
2022-07-25T14:57:34.931Z,36.3
2022-07-25T15:04:17.379Z,36.6
2022-07-25T15:10:45.265Z,36.85
2022-07-25T15:17:06.375Z,36.92
2022-07-25T15:23:39.080Z,36.74
2022-07-25T15:30:10.149Z,36.6
2022-07-25T15:36:42.337Z,36.72
2022-07-25T15:43:16.533Z,36.62
2022-07-25T15:49:45.906Z,36.37
2022-07-25T15:56:15.220Z,36.35
2022-07-25T16:02:44.557Z,36.14
2022-07-25T16:09:07.885Z,36.22
2022-07-25T16:15:41.364Z,36.37
2022-07-25T16:22:16.185Z,36.59
2022-07-25T16:28:40.151Z,36.21
2022-07-25T16:35:02.489Z,36.25
2022-07-25T16:41:32.582Z,36.07
2022-07-25T16:48:09.075Z,35.86
2022-07-25T16:54:31.730Z,36.18
2022-07-25T17:01:01.162Z,36.07
2022-07-25T17:07:30.210Z,36.17
2022-07-25T17:13:55.096Z,36.44
2022-07-25T17:20:21.622Z,36.61
2022-07-25T17:26:48.601Z,36.75
2022-07-25T17:33:20.283Z,36.84
2022-07-25T17:39:49.022Z,36.93
2022-07-25T17:46:15.645Z,37.07
2022-07-25T17:52:43.307Z,37.04
2022-07-25T17:59:25.337Z,37.2
2022-07-25T18:06:00.160Z,37.27
2022-07-25T18:12:29.825Z,37.37
2022-07-25T18:19:00.637Z,38.03
2022-07-25T18:25:27.204Z,37.9
2022-07-25T18:31:54.755Z,38
2022-07-25T18:38:25.491Z,38.21
2022-07-25T18:45:07.525Z,38.19
2022-07-25T18:51:40.790Z,37.86
2022-07-25T18:58:34.640Z,38.11
2022-07-25T19:06:05.542Z,38.71
2022-07-25T19:13:51.734Z,38.85
2022-07-25T19:21:25.474Z,38.75
2022-07-25T19:29:00.752Z,38.8
2022-07-25T19:36:35.085Z,38.73
2022-07-25T19:44:30.734Z,38.76
2022-07-25T19:51:57.723Z,38.7
2022-07-25T19:59:35.896Z,38.71
2022-07-25T20:06:58.672Z,38.68
2022-07-25T20:14:34.833Z,38.71
2022-07-25T20:22:19.821Z,38.56
2022-07-25T20:29:55.585Z,38.54
2022-07-25T20:37:15.315Z,38.5
2022-07-25T20:44:43.738Z,38.51
2022-07-25T20:52:06.571Z,38.54
2022-07-25T20:59:38.577Z,38.42
2022-07-25T21:07:11.286Z,38.45
2022-07-25T21:14:55.053Z,38.37
2022-07-25T21:22:30.974Z,38.31
2022-07-25T21:30:05.777Z,38.36
2022-07-25T21:37:35.545Z,38.2
2022-07-25T21:45:18.828Z,38.16
2022-07-25T21:52:53.566Z,38.18
2022-07-25T22:00:33.754Z,38.1
2022-07-25T22:08:09.375Z,38.1
2022-07-25T22:15:39.316Z,38.07
2022-07-25T22:22:58.528Z,37.76
2022-07-25T22:29:59.290Z,37.74
2022-07-25T22:36:34.389Z,37.27
2022-07-25T22:43:00.768Z,37.16
2022-07-25T22:49:35.724Z,37.1
2022-07-25T22:56:08.775Z,37.06
2022-07-25T23:02:44.754Z,37.06
2022-07-25T23:09:22.301Z,37.03
2022-07-25T23:15:51.752Z,37
2022-07-25T23:22:19.519Z,37.07
2022-07-25T23:28:44.460Z,36.89
2022-07-25T23:35:16.791Z,36.91
2022-07-25T23:41:51.083Z,36.91
2022-07-25T23:48:16.769Z,36.82
2022-07-25T23:54:44.800Z,36.88
